createdAt,value
2019-03-11T00:03:48.545Z,63.80
2019-03-11T00:06:36.305Z,63.50
2019-03-11T00:09:24.587Z,63.40
2019-03-11T00:12:12.563Z,63.70
2019-03-11T00:15:00.532Z,63.50
2019-03-11T00:17:48.617Z,62.70
2019-03-11T00:20:37.222Z,62.90
2019-03-11T00:23:25.236Z,63.10
2019-03-11T00:26:13.026Z,62.50
2019-03-11T00:29:01.451Z,62.70
2019-03-11T00:31:49.375Z,63.10
2019-03-11T00:34:37.512Z,63.10
2019-03-11T00:37:25.539Z,63.40
2019-03-11T00:40:14.158Z,63.60
2019-03-11T00:43:02.703Z,63.20
2019-03-11T00:45:50.673Z,62.80
2019-03-11T00:48:39.008Z,63.20
2019-03-11T00:51:27.368Z,62.20
2019-03-11T00:54:15.480Z,61.10
2019-03-11T00:57:03.326Z,61.90
2019-03-11T00:59:51.371Z,62.10
2019-03-11T01:02:39.628Z,60.80
2019-03-11T01:05:27.896Z,59.50
2019-03-11T01:08:16.260Z,58.90
2019-03-11T01:11:04.146Z,58.30
2019-03-11T01:13:52.299Z,57.10
2019-03-11T01:16:40.436Z,57.50
2019-03-11T01:19:28.465Z,57.30
2019-03-11T01:22:16.360Z,57.20
2019-03-11T01:25:05.122Z,57.50
2019-03-11T01:27:53.428Z,57.20
2019-03-11T01:30:41.860Z,57.10
2019-03-11T01:33:30.318Z,57.30
2019-03-11T01:36:18.313Z,56.60
2019-03-11T01:39:06.283Z,56.40
2019-03-11T01:41:54.957Z,56.00
2019-03-11T01:44:43.118Z,55.40
2019-03-11T01:47:31.048Z,55.40
2019-03-11T01:50:19.694Z,55.60
2019-03-11T01:53:07.920Z,56.00
2019-03-11T01:55:56.166Z,55.30
2019-03-11T01:58:44.506Z,55.70
2019-03-11T02:01:32.770Z,56.00
2019-03-11T02:04:20.730Z,56.00
2019-03-11T02:07:09.061Z,56.60
2019-03-11T02:09:57.037Z,56.70
2019-03-11T02:12:45.762Z,56.70
2019-03-11T02:15:33.878Z,56.40
2019-03-11T02:18:22.219Z,56.40
2019-03-11T02:21:10.626Z,56.40
2019-03-11T02:23:58.946Z,56.50
2019-03-11T02:26:47.003Z,56.70
2019-03-11T02:29:34.680Z,56.40
2019-03-11T02:32:22.730Z,56.80
2019-03-11T02:35:10.917Z,56.30
2019-03-11T02:37:58.995Z,56.40
2019-03-11T02:40:46.979Z,56.60
2019-03-11T02:43:35.359Z,56.90
2019-03-11T02:46:23.649Z,56.70
2019-03-11T02:49:11.324Z,56.50
2019-03-11T02:51:59.851Z,56.70
2019-03-11T02:54:48.506Z,57.10
2019-03-11T02:57:36.655Z,56.70
2019-03-11T03:00:24.805Z,56.40
2019-03-11T03:06:29.612Z,56.80
2019-03-11T03:09:18.311Z,56.90
2019-03-11T03:12:06.279Z,57.40
2019-03-11T03:14:54.224Z,57.80
2019-03-11T03:17:42.180Z,58.20
2019-03-11T03:20:30.137Z,58.90
2019-03-11T03:23:18.279Z,59.30
2019-03-11T03:26:06.566Z,59.40
2019-03-11T03:28:54.810Z,59.80
2019-03-11T03:31:42.775Z,60.00
2019-03-11T03:34:30.850Z,60.50
2019-03-11T03:37:18.873Z,61.00
2019-03-11T03:40:07.071Z,61.20
2019-03-11T03:42:55.341Z,61.40
2019-03-11T03:45:44.091Z,61.70
2019-03-11T03:48:32.259Z,61.50
2019-03-11T03:51:20.403Z,61.60
2019-03-11T03:54:08.933Z,61.50
2019-03-11T03:56:56.967Z,60.50
2019-03-11T03:59:45.137Z,59.40
2019-03-11T04:02:33.464Z,60.30
2019-03-11T04:05:22.088Z,61.30
2019-03-11T04:08:10.193Z,61.00
2019-03-11T04:10:58.379Z,61.70
2019-03-11T04:13:46.508Z,62.30
2019-03-11T04:16:34.432Z,62.40
2019-03-11T04:19:22.442Z,62.40
2019-03-11T04:22:11.126Z,62.60
2019-03-11T04:24:59.207Z,63.10
2019-03-11T04:27:46.966Z,63.30
2019-03-11T04:30:35.545Z,63.70
2019-03-11T04:33:24.064Z,63.50
2019-03-11T04:36:12.253Z,64.30
2019-03-11T04:39:00.269Z,63.30
2019-03-11T04:41:48.223Z,62.80
2019-03-11T04:44:36.191Z,62.70
2019-03-11T04:47:24.657Z,62.20
2019-03-11T04:50:12.569Z,62.70
2019-03-11T04:53:00.736Z,62.30
2019-03-11T04:55:48.571Z,62.40
2019-03-11T04:58:36.915Z,62.10
2019-03-11T05:01:24.923Z,62.30
2019-03-11T05:04:13.410Z,62.50
2019-03-11T05:07:02.178Z,62.40
2019-03-11T05:09:50.408Z,62.40
2019-03-11T05:12:38.581Z,62.20
2019-03-11T05:15:26.528Z,61.10
2019-03-11T05:18:14.795Z,60.40
2019-03-11T05:21:03.179Z,60.20
2019-03-11T05:23:51.701Z,59.60
2019-03-11T05:26:39.919Z,59.40
2019-03-11T05:29:28.007Z,58.90
2019-03-11T05:32:16.118Z,58.40
2019-03-11T05:35:04.820Z,58.00
2019-03-11T05:37:53.714Z,59.90
2019-03-11T05:40:41.780Z,58.90
2019-03-11T05:43:29.760Z,58.70
2019-03-11T05:46:17.869Z,58.00
2019-03-11T05:51:52.083Z,57.80
2019-03-11T05:54:40.235Z,58.40
2019-03-11T05:57:28.180Z,58.80
2019-03-11T06:00:17.894Z,57.20
2019-03-11T06:03:06.283Z,57.80
2019-03-11T06:05:54.282Z,58.10
2019-03-11T06:08:42.345Z,57.40
2019-03-11T06:13:54.849Z,57.50
2019-03-11T06:16:25.654Z,57.90
2019-03-11T06:18:56.717Z,55.70
2019-03-11T06:21:35.569Z,56.00
2019-03-11T06:24:06.023Z,55.90
2019-03-11T06:26:36.410Z,56.30
2019-03-11T06:29:06.848Z,55.40
2019-03-11T06:31:37.287Z,54.70
2019-03-11T06:34:07.748Z,54.80
2019-03-11T06:36:38.120Z,54.20
2019-03-11T06:39:09.364Z,54.10
2019-03-11T06:41:39.686Z,54.60
2019-03-11T06:44:10.094Z,54.30
2019-03-11T06:46:41.119Z,54.40
2019-03-11T06:49:11.478Z,53.80
2019-03-11T06:51:42.259Z,53.30
2019-03-11T06:54:12.592Z,53.50
2019-03-11T06:56:42.926Z,53.50
2019-03-11T06:59:13.599Z,54.70
2019-03-11T07:01:44.164Z,54.00
2019-03-11T07:04:14.584Z,54.20
2019-03-11T07:06:45.238Z,54.90
2019-03-11T07:09:16.017Z,55.30
2019-03-11T07:11:46.703Z,56.10
2019-03-11T07:14:17.386Z,57.00
2019-03-11T07:16:47.794Z,57.90
2019-03-11T07:19:18.641Z,58.80
2019-03-11T07:21:49.228Z,59.80
2019-03-11T07:24:19.540Z,60.40
2019-03-11T07:26:49.902Z,61.50
2019-03-11T07:29:20.254Z,62.70
2019-03-11T07:31:50.646Z,63.70
2019-03-11T07:34:21.004Z,64.50
2019-03-11T07:36:51.395Z,65.70
2019-03-11T07:39:21.729Z,66.50
2019-03-11T07:41:52.120Z,67.80
2019-03-11T07:44:22.511Z,68.40
2019-03-11T07:46:52.900Z,69.00
2019-03-11T07:49:23.245Z,70.20
2019-03-11T07:51:53.569Z,70.90
2019-03-11T07:54:23.958Z,71.60
2019-03-11T07:56:54.319Z,72.20
2019-03-11T07:59:24.746Z,72.50
2019-03-11T08:01:55.155Z,72.40
2019-03-11T08:04:25.528Z,72.90
2019-03-11T08:06:55.889Z,73.40
2019-03-11T08:09:37.404Z,74.10
2019-03-11T08:11:58.373Z,74.00
2019-03-11T08:14:28.777Z,74.30
2019-03-11T08:16:59.154Z,74.70
2019-03-11T08:19:29.527Z,74.80
2019-03-11T08:21:59.936Z,75.10
2019-03-11T08:24:30.253Z,75.30
2019-03-11T08:27:00.619Z,75.30
2019-03-11T08:29:30.998Z,75.40
2019-03-11T08:32:01.352Z,75.70
2019-03-11T08:34:31.714Z,75.90
2019-03-11T08:37:02.101Z,76.00
2019-03-11T08:39:32.454Z,76.30
2019-03-11T08:42:02.823Z,76.50
2019-03-11T08:44:33.217Z,76.60
2019-03-11T08:47:03.599Z,76.80
2019-03-11T08:49:33.949Z,77.80
2019-03-11T08:52:05.482Z,77.10
2019-03-11T08:54:36.062Z,77.20
2019-03-11T08:57:06.431Z,77.20
2019-03-11T08:59:36.790Z,77.30
2019-03-11T09:02:07.114Z,77.30
2019-03-11T09:04:37.465Z,77.30
2019-03-11T09:07:07.829Z,77.20
2019-03-11T09:09:38.201Z,77.30
2019-03-11T09:12:08.627Z,77.10
2019-03-11T09:14:39.005Z,77.10
2019-03-11T09:17:09.427Z,77.20
2019-03-11T09:19:39.795Z,77.10
2019-03-11T09:22:10.157Z,77.00
2019-03-11T09:24:40.525Z,77.00
2019-03-11T09:27:10.913Z,76.90
2019-03-11T09:29:41.269Z,76.70
2019-03-11T09:32:11.593Z,76.60
2019-03-11T09:34:41.985Z,76.60
2019-03-11T09:37:12.363Z,76.60
2019-03-11T09:39:42.804Z,76.60
2019-03-11T09:42:13.057Z,76.50
2019-03-11T09:44:43.581Z,76.40
2019-03-11T09:47:13.908Z,76.40
2019-03-11T09:49:44.311Z,76.20
2019-03-11T09:52:14.598Z,76.30
2019-03-11T09:54:44.996Z,76.40
2019-03-11T09:57:15.323Z,77.00
2019-03-11T09:59:45.716Z,76.20
2019-03-11T10:02:16.063Z,76.20
2019-03-11T10:04:46.427Z,76.00
2019-03-11T10:07:16.797Z,76.00
2019-03-11T10:09:47.138Z,76.10
2019-03-11T10:12:17.489Z,76.40
2019-03-11T10:14:47.887Z,76.30
2019-03-11T10:17:18.280Z,76.50
2019-03-11T10:19:49.405Z,76.70
2019-03-11T10:22:19.882Z,76.80
2019-03-11T10:24:50.219Z,76.80
2019-03-11T10:27:20.566Z,76.90
2019-03-11T10:29:50.901Z,76.90
2019-03-11T10:32:21.273Z,77.00
2019-03-11T10:34:51.637Z,76.90
2019-03-11T10:37:21.987Z,76.90
2019-03-11T10:39:52.314Z,77.00
2019-03-11T10:42:22.700Z,77.00
2019-03-11T10:44:53.042Z,77.00
2019-03-11T10:47:23.442Z,76.90
2019-03-11T10:49:53.755Z,77.00
2019-03-11T10:52:24.101Z,77.00
2019-03-11T10:54:54.491Z,77.00
2019-03-11T10:57:24.801Z,77.00
2019-03-11T10:59:55.189Z,77.00
2019-03-11T11:02:25.543Z,77.00
2019-03-11T11:04:55.933Z,77.00
2019-03-11T11:07:26.315Z,77.00
2019-03-11T11:09:56.757Z,77.00
2019-03-11T11:12:27.098Z,77.00
2019-03-11T11:14:57.444Z,77.10
2019-03-11T11:17:27.869Z,77.20
2019-03-11T11:20:03.324Z,77.20
2019-03-11T11:22:30.349Z,77.30
2019-03-11T11:25:00.708Z,77.50
2019-03-11T11:27:31.106Z,77.40
2019-03-11T11:30:01.445Z,77.30
2019-03-11T11:32:31.867Z,77.30
2019-03-11T11:35:02.207Z,77.10
2019-03-11T11:37:32.516Z,77.10
2019-03-11T11:40:02.887Z,76.90
2019-03-11T11:42:33.245Z,76.90
2019-03-11T11:45:03.574Z,77.20
2019-03-11T11:47:33.916Z,77.20
2019-03-11T11:50:05.091Z,77.20
2019-03-11T11:52:35.509Z,77.70
2019-03-11T11:55:06.684Z,77.70
2019-03-11T11:57:37.016Z,78.10
2019-03-11T12:00:11.346Z,78.00
2019-03-11T12:02:42.263Z,78.00
2019-03-11T12:05:13.612Z,77.90
2019-03-11T12:07:44.275Z,77.60
2019-03-11T12:10:17.359Z,77.50
2019-03-11T12:12:48.176Z,77.30
2019-03-11T12:15:18.555Z,77.20
2019-03-11T12:17:49.865Z,77.10
2019-03-11T12:20:22.648Z,77.30
2019-03-11T12:22:53.138Z,77.30
2019-03-11T12:25:23.514Z,77.00
2019-03-11T12:27:54.897Z,76.70
2019-03-11T12:30:27.153Z,76.60
2019-03-11T12:32:57.720Z,76.20
2019-03-11T12:35:28.731Z,76.10
2019-03-11T12:37:59.358Z,76.10
2019-03-11T12:40:32.130Z,76.20
2019-03-11T12:43:02.719Z,76.30
2019-03-11T12:45:33.097Z,76.10
2019-03-11T12:48:03.800Z,76.80
2019-03-11T12:50:34.407Z,75.90
2019-03-11T12:53:04.909Z,75.90
2019-03-11T12:55:35.692Z,75.60
2019-03-11T12:58:06.262Z,75.80
2019-03-11T13:00:36.892Z,75.70
2019-03-11T13:03:07.332Z,75.60
2019-03-11T13:05:37.708Z,75.70
2019-03-11T13:08:08.582Z,75.40
2019-03-11T13:10:39.163Z,75.20
2019-03-11T13:13:09.623Z,75.10
2019-03-11T13:15:39.995Z,74.40
2019-03-11T13:18:37.413Z,73.60
2019-03-11T13:21:29.582Z,73.00
2019-03-11T13:23:59.984Z,72.40
2019-03-11T13:26:30.465Z,72.80
2019-03-11T13:29:00.889Z,73.00
2019-03-11T13:31:31.909Z,72.50
2019-03-11T13:34:02.256Z,72.00
2019-03-11T13:36:32.799Z,71.40
2019-03-11T13:39:04.516Z,70.70
2019-03-11T13:41:34.902Z,70.50
2019-03-11T13:44:05.261Z,69.60
2019-03-11T13:46:35.658Z,69.10
2019-03-11T13:49:09.325Z,69.60
2019-03-11T13:51:39.722Z,68.00
2019-03-11T13:54:10.110Z,67.90
2019-03-11T13:56:40.469Z,67.80
2019-03-11T13:59:10.860Z,65.90
2019-03-11T14:01:41.431Z,64.90
2019-03-11T14:04:11.819Z,65.50
2019-03-11T14:06:42.149Z,64.90
2019-03-11T14:09:12.595Z,63.10
2019-03-11T14:11:42.959Z,63.60
2019-03-11T14:14:13.300Z,62.70
2019-03-11T14:16:43.776Z,63.10
2019-03-11T14:19:15.789Z,63.50
2019-03-11T14:21:46.131Z,63.80
2019-03-11T14:24:16.545Z,63.70
2019-03-11T14:26:46.907Z,63.40
2019-03-11T14:29:17.252Z,63.40
2019-03-11T14:31:47.646Z,63.70
2019-03-11T14:34:18.192Z,64.10
2019-03-11T14:36:48.633Z,65.00
2019-03-11T14:39:18.993Z,64.80
2019-03-11T14:41:49.353Z,65.30
2019-03-11T14:44:19.712Z,65.40
2019-03-11T14:46:50.107Z,65.60
2019-03-11T14:49:20.459Z,65.90
2019-03-11T14:51:50.827Z,65.90
2019-03-11T14:54:21.145Z,65.80
2019-03-11T14:56:51.481Z,65.30
2019-03-11T14:59:22.667Z,64.00
2019-03-11T15:01:53.367Z,64.00
2019-03-11T15:04:23.992Z,64.00
2019-03-11T15:06:54.589Z,64.20
2019-03-11T15:09:25.497Z,63.40
2019-03-11T15:11:56.087Z,62.80
2019-03-11T15:14:26.479Z,62.70
2019-03-11T15:16:56.972Z,62.50
2019-03-11T15:19:27.349Z,63.00
2019-03-11T15:21:57.749Z,63.00
2019-03-11T15:24:28.168Z,63.40
2019-03-11T15:26:58.556Z,63.10
2019-03-11T15:29:28.898Z,62.40
2019-03-11T15:31:59.272Z,63.10
2019-03-11T15:34:29.612Z,62.80
2019-03-11T15:37:00.389Z,61.00
2019-03-11T15:39:30.717Z,60.60
2019-03-11T15:42:01.074Z,61.20
2019-03-11T15:44:31.511Z,61.80
2019-03-11T15:47:01.909Z,62.40
2019-03-11T15:49:32.284Z,62.80
2019-03-11T15:52:02.640Z,63.10
2019-03-11T15:54:32.999Z,63.40
2019-03-11T15:57:03.373Z,64.50
2019-03-11T15:59:33.855Z,65.80
2019-03-11T16:02:04.179Z,67.00
2019-03-11T16:04:34.568Z,68.00
2019-03-11T16:07:04.911Z,68.50
2019-03-11T16:09:35.291Z,69.20
2019-03-11T16:12:05.626Z,69.80
2019-03-11T16:14:36.013Z,70.20
2019-03-11T16:17:06.501Z,70.40
2019-03-11T16:19:37.347Z,70.80
2019-03-11T16:22:07.886Z,71.20
2019-03-11T16:24:38.255Z,71.50
2019-03-11T16:27:08.632Z,71.70
2019-03-11T16:29:39.011Z,72.00
2019-03-11T16:32:11.904Z,72.10
2019-03-11T16:34:41.468Z,72.20
2019-03-11T16:37:13.542Z,72.50
2019-03-11T16:39:43.915Z,72.80
2019-03-11T16:42:18.773Z,73.10
2019-03-11T16:44:49.162Z,73.40
2019-03-11T16:47:19.544Z,73.50
2019-03-11T16:49:49.944Z,73.60
2019-03-11T16:52:20.301Z,74.00
2019-03-11T16:54:50.640Z,74.10
2019-03-11T16:57:20.992Z,74.20
2019-03-11T16:59:51.406Z,74.50
2019-03-11T17:02:22.446Z,74.60
2019-03-11T17:04:52.846Z,74.60
2019-03-11T17:07:23.251Z,74.70
2019-03-11T17:09:53.634Z,74.80
2019-03-11T17:12:24.094Z,75.70
2019-03-11T17:14:54.454Z,75.00
2019-03-11T17:17:24.834Z,75.10
2019-03-11T17:19:55.211Z,75.10
2019-03-11T17:22:25.635Z,75.30
2019-03-11T17:24:55.994Z,75.30
2019-03-11T17:27:26.523Z,75.30
2019-03-11T17:29:56.875Z,75.30
2019-03-11T17:32:27.227Z,75.30
2019-03-11T17:34:57.594Z,75.30
2019-03-11T17:37:27.989Z,75.40
2019-03-11T17:39:58.362Z,75.40
2019-03-11T17:42:28.900Z,75.50
2019-03-11T17:44:59.197Z,75.60
2019-03-11T17:47:29.589Z,75.80
2019-03-11T17:49:59.974Z,75.70
2019-03-11T17:52:30.411Z,75.80
2019-03-11T17:55:01.427Z,75.90
2019-03-11T17:57:31.814Z,75.90
2019-03-11T18:00:02.695Z,75.90
2019-03-11T18:02:33.221Z,76.00
2019-03-11T18:05:03.945Z,75.90
2019-03-11T18:07:34.577Z,75.90
2019-03-11T18:10:06.829Z,75.90
2019-03-11T18:12:37.382Z,76.10
2019-03-11T18:15:08.479Z,76.10
2019-03-11T18:17:39.163Z,76.10
2019-03-11T18:20:10.792Z,76.30
2019-03-11T18:22:41.275Z,76.00
2019-03-11T18:25:13.790Z,76.00
2019-03-11T18:27:44.143Z,76.00
2019-03-11T18:30:18.607Z,76.00
2019-03-11T18:32:49.468Z,76.20
2019-03-11T18:35:19.959Z,76.20
2019-03-11T18:37:50.507Z,76.20
2019-03-11T18:40:20.936Z,76.20
2019-03-11T18:42:51.823Z,76.20
2019-03-11T18:45:22.477Z,76.30
2019-03-11T18:47:53.288Z,76.30
2019-03-11T18:50:24.141Z,76.10
2019-03-11T18:52:54.628Z,76.20
2019-03-11T18:55:35.531Z,76.10
2019-03-11T18:58:06.230Z,76.10
2019-03-11T19:00:36.603Z,76.50
2019-03-11T19:03:17.632Z,76.10
2019-03-11T19:05:48.314Z,76.20
2019-03-11T19:08:18.681Z,76.10
2019-03-11T19:10:49.634Z,76.10
2019-03-11T19:13:20.057Z,76.20
2019-03-11T19:15:50.461Z,77.00
2019-03-11T19:18:22.814Z,76.00
2019-03-11T19:20:53.249Z,76.00
2019-03-11T19:23:24.153Z,75.90
2019-03-11T19:25:57.042Z,75.90
2019-03-11T19:28:28.087Z,75.80
2019-03-11T19:30:58.581Z,75.80
2019-03-11T19:33:29.035Z,75.60
2019-03-11T19:35:59.468Z,75.60
2019-03-11T19:38:32.631Z,75.60
2019-03-11T19:41:03.446Z,75.80
2019-03-11T19:43:34.137Z,75.40
2019-03-11T19:46:04.572Z,75.50
2019-03-11T19:48:35.521Z,75.50
2019-03-11T19:51:05.977Z,75.50
2019-03-11T19:53:36.645Z,75.40
2019-03-11T19:56:07.284Z,75.40
2019-03-11T19:58:37.792Z,75.40
2019-03-11T20:01:08.305Z,75.40
2019-03-11T20:03:38.900Z,75.30
2019-03-11T20:06:09.277Z,75.30
2019-03-11T20:08:47.129Z,75.40
2019-03-11T20:11:17.976Z,75.30
2019-03-11T20:13:48.389Z,75.40
2019-03-11T20:16:22.150Z,75.30
2019-03-11T20:18:52.798Z,75.40
2019-03-11T20:21:23.913Z,75.10
2019-03-11T20:23:54.498Z,75.10
2019-03-11T20:26:25.060Z,75.10
2019-03-11T20:28:55.718Z,75.10
2019-03-11T20:31:26.239Z,75.20
2019-03-11T20:33:56.874Z,75.10
2019-03-11T20:36:27.378Z,75.10
2019-03-11T20:38:57.976Z,75.00
2019-03-11T20:41:28.536Z,75.00
2019-03-11T20:43:59.270Z,75.00
2019-03-11T20:46:29.752Z,75.00
2019-03-11T20:49:00.248Z,75.00
2019-03-11T20:51:30.708Z,75.10
2019-03-11T20:54:01.261Z,74.90
2019-03-11T20:56:31.770Z,75.00
2019-03-11T20:59:02.328Z,75.00
2019-03-11T21:01:32.764Z,75.10
2019-03-11T21:04:03.212Z,75.10
2019-03-11T21:06:33.736Z,75.00
2019-03-11T21:09:05.714Z,75.00
2019-03-11T21:11:36.179Z,74.70
2019-03-11T21:14:08.758Z,74.60
2019-03-11T21:16:38.761Z,74.50
2019-03-11T21:19:09.226Z,74.50
2019-03-11T21:21:39.707Z,74.30
2019-03-11T21:24:10.072Z,73.90
2019-03-11T21:26:40.492Z,73.70
2019-03-11T21:29:10.864Z,73.60
2019-03-11T21:31:41.260Z,73.40
2019-03-11T21:34:11.654Z,73.50
2019-03-11T21:36:42.096Z,73.30
2019-03-11T21:39:12.593Z,73.20
2019-03-11T21:41:43.064Z,73.30
2019-03-11T21:44:13.474Z,72.90
2019-03-11T21:46:43.963Z,73.00
2019-03-11T21:49:14.413Z,73.90
2019-03-11T21:51:44.789Z,73.20
2019-03-11T21:54:15.122Z,72.90
2019-03-11T21:56:45.577Z,72.70
2019-03-11T21:59:15.992Z,72.80
2019-03-11T22:01:46.556Z,72.60
2019-03-11T22:04:16.884Z,72.40
2019-03-11T22:06:47.215Z,72.50
2019-03-11T22:09:17.673Z,72.70
2019-03-11T22:11:48.093Z,72.90
2019-03-11T22:14:18.456Z,72.90
2019-03-11T22:16:48.937Z,72.70
2019-03-11T22:19:19.281Z,72.40
2019-03-11T22:21:49.731Z,72.40
2019-03-11T22:24:20.099Z,72.40
2019-03-11T22:26:50.479Z,71.90
2019-03-11T22:29:20.924Z,71.80
2019-03-11T22:31:51.260Z,72.00
2019-03-11T22:34:21.633Z,71.70
2019-03-11T22:36:51.999Z,71.70
2019-03-11T22:39:22.386Z,71.80
2019-03-11T22:41:53.018Z,71.10
2019-03-11T22:44:23.683Z,71.10
2019-03-11T22:46:54.002Z,71.00
2019-03-11T22:49:24.389Z,70.90
2019-03-11T22:51:54.722Z,71.00
2019-03-11T22:54:25.111Z,71.30
2019-03-11T22:56:55.445Z,71.40
2019-03-11T22:59:25.766Z,71.50
2019-03-11T23:01:56.087Z,70.80
2019-03-11T23:04:26.587Z,70.40
2019-03-11T23:06:56.941Z,70.30
2019-03-11T23:09:27.340Z,70.30
2019-03-11T23:11:57.702Z,70.10
2019-03-11T23:14:28.075Z,70.20
2019-03-11T23:16:58.374Z,69.90
2019-03-11T23:19:28.739Z,69.40
2019-03-11T23:21:59.116Z,69.60
2019-03-11T23:24:29.455Z,69.30
2019-03-11T23:26:59.809Z,69.10
2019-03-11T23:29:30.145Z,69.00
2019-03-11T23:32:00.533Z,68.70
2019-03-11T23:34:30.855Z,68.80
2019-03-11T23:37:01.260Z,68.70
2019-03-11T23:39:31.643Z,69.30
2019-03-11T23:42:02.021Z,68.70
2019-03-11T23:44:32.424Z,68.30
2019-03-11T23:47:02.827Z,68.10
2019-03-11T23:49:33.214Z,68.40
2019-03-11T23:52:03.645Z,68.20
2019-03-11T23:54:35.751Z,68.10
2019-03-11T23:57:06.105Z,68.10
2019-03-11T23:59:36.502Z,68.40
